sensor_id;sensor_type;location;lat;lon;timestamp;temperature;humidity
4520;DHT22;2272;49.226;8.108;2024-03-23T00:54:08;10.80;99.90
4520;DHT22;2272;49.226;8.108;2024-03-23T00:56:34;10.70;99.90
4520;DHT22;2272;49.226;8.108;2024-03-23T00:59:02;10.60;99.90
4520;DHT22;2272;49.226;8.108;2024-03-23T01:01:28;10.50;99.90
4520;DHT22;2272;49.226;8.108;2024-03-23T01:03:55;10.50;99.90
4520;DHT22;2272;49.226;8.108;2024-03-23T01:06:21;10.40;99.90
4520;DHT22;2272;49.226;8.108;2024-03-23T01:08:48;10.40;99.90
4520;DHT22;2272;49.226;8.108;2024-03-23T01:11:17;10.50;99.90
4520;DHT22;2272;49.226;8.108;2024-03-23T01:13:44;10.60;99.90
4520;DHT22;2272;49.226;8.108;2024-03-23T01:16:11;10.70;99.90
4520;DHT22;2272;49.226;8.108;2024-03-23T01:18:38;10.70;99.90
4520;DHT22;2272;49.226;8.108;2024-03-23T01:21:04;10.60;99.90
4520;DHT22;2272;49.226;8.108;2024-03-23T01:23:31;10.60;99.90
4520;DHT22;2272;49.226;8.108;2024-03-23T01:25:56;10.50;99.90
4520;DHT22;2272;49.226;8.108;2024-03-23T01:28:23;10.50;99.90
4520;DHT22;2272;49.226;8.108;2024-03-23T01:30:49;10.50;99.90
4520;DHT22;2272;49.226;8.108;2024-03-23T01:33:18;10.40;99.90
4520;DHT22;2272;49.226;8.108;2024-03-23T01:35:44;10.40;99.90
4520;DHT22;2272;49.226;8.108;2024-03-23T01:38:11;10.40;99.90
4520;DHT22;2272;49.226;8.108;2024-03-23T01:40:37;10.50;99.90
4520;DHT22;2272;49.226;8.108;2024-03-23T01:43:06;10.50;99.90
4520;DHT22;2272;49.226;8.108;2024-03-23T01:45:35;10.60;99.90
4520;DHT22;2272;49.226;8.108;2024-03-23T01:48:03;10.70;99.90
4520;DHT22;2272;49.226;8.108;2024-03-23T01:50:31;10.80;99.90
4520;DHT22;2272;49.226;8.108;2024-03-23T01:53:00;10.80;99.90
4520;DHT22;2272;49.226;8.108;2024-03-23T01:55:27;10.80;99.90
4520;DHT22;2272;49.226;8.108;2024-03-23T01:57:56;10.80;99.90
4520;DHT22;2272;49.226;8.108;2024-03-23T02:00:22;10.90;99.90
4520;DHT22;2272;49.226;8.108;2024-03-23T02:02:49;11.00;99.90
4520;DHT22;2272;49.226;8.108;2024-03-23T02:05:15;11.10;99.90
4520;DHT22;2272;49.226;8.108;2024-03-23T02:07:44;11.30;99.90
4520;DHT22;2272;49.226;8.108;2024-03-23T02:10:11;11.30;99.90
4520;DHT22;2272;49.226;8.108;2024-03-23T02:12:39;11.30;99.90
4520;DHT22;2272;49.226;8.108;2024-03-23T02:15:05;11.20;99.90
4520;DHT22;2272;49.226;8.108;2024-03-23T02:17:33;11.20;99.90
4520;DHT22;2272;49.226;8.108;2024-03-23T02:19:59;11.20;99.90
4520;DHT22;2272;49.226;8.108;2024-03-23T02:22:35;11.10;99.90
4520;DHT22;2272;49.226;8.108;2024-03-23T02:25:03;11.10;99.90
4520;DHT22;2272;49.226;8.108;2024-03-23T02:27:29;11.00;99.90
4520;DHT22;2272;49.226;8.108;2024-03-23T02:29:55;11.00;99.90
4520;DHT22;2272;49.226;8.108;2024-03-23T02:32:22;11.00;99.90
4520;DHT22;2272;49.226;8.108;2024-03-23T02:34:52;11.00;99.90
4520;DHT22;2272;49.226;8.108;2024-03-23T02:37:19;11.00;99.90
4520;DHT22;2272;49.226;8.108;2024-03-23T02:39:45;11.00;99.90
4520;DHT22;2272;49.226;8.108;2024-03-23T02:42:13;11.00;99.90
4520;DHT22;2272;49.226;8.108;2024-03-23T02:44:40;11.10;99.90
4520;DHT22;2272;49.226;8.108;2024-03-23T02:47:07;11.00;99.90
4520;DHT22;2272;49.226;8.108;2024-03-23T02:49:33;11.00;99.90
4520;DHT22;2272;49.226;8.108;2024-03-23T02:52:00;11.00;99.90
4520;DHT22;2272;49.226;8.108;2024-03-23T02:54:25;10.90;99.90
4520;DHT22;2272;49.226;8.108;2024-03-23T02:56:52;10.80;99.90
4520;DHT22;2272;49.226;8.108;2024-03-23T02:59:19;10.80;99.90
4520;DHT22;2272;49.226;8.108;2024-03-23T03:01:46;10.70;99.90
4520;DHT22;2272;49.226;8.108;2024-03-23T03:04:12;10.80;99.90
4520;DHT22;2272;49.226;8.108;2024-03-23T03:06:38;10.80;99.90
4520;DHT22;2272;49.226;8.108;2024-03-23T03:09:04;10.80;99.90
4520;DHT22;2272;49.226;8.108;2024-03-23T03:11:31;10.80;99.90
4520;DHT22;2272;49.226;8.108;2024-03-23T03:13:57;10.90;99.90
4520;DHT22;2272;49.226;8.108;2024-03-23T03:16:27;11.00;99.90
4520;DHT22;2272;49.226;8.108;2024-03-23T03:18:52;11.00;99.90
4520;DHT22;2272;49.226;8.108;2024-03-23T03:21:19;11.00;99.90
4520;DHT22;2272;49.226;8.108;2024-03-23T03:23:45;11.10;99.90
4520;DHT22;2272;49.226;8.108;2024-03-23T03:26:11;11.10;99.90
4520;DHT22;2272;49.226;8.108;2024-03-23T03:28:37;11.00;99.90
4520;DHT22;2272;49.226;8.108;2024-03-23T03:31:08;11.00;99.90
4520;DHT22;2272;49.226;8.108;2024-03-23T03:33:35;11.00;99.90
4520;DHT22;2272;49.226;8.108;2024-03-23T03:36:02;11.00;99.90
4520;DHT22;2272;49.226;8.108;2024-03-23T03:38:28;10.90;99.90
4520;DHT22;2272;49.226;8.108;2024-03-23T03:40:55;10.90;99.90
4520;DHT22;2272;49.226;8.108;2024-03-23T03:43:21;10.90;99.90
4520;DHT22;2272;49.226;8.108;2024-03-23T03:45:51;10.90;99.90
4520;DHT22;2272;49.226;8.108;2024-03-23T03:48:17;10.90;99.90
4520;DHT22;2272;49.226;8.108;2024-03-23T03:50:45;10.80;99.90
4520;DHT22;2272;49.226;8.108;2024-03-23T03:53:11;10.80;99.90
4520;DHT22;2272;49.226;8.108;2024-03-23T03:55:38;10.80;99.90
4520;DHT22;2272;49.226;8.108;2024-03-23T03:58:04;10.80;99.90
4520;DHT22;2272;49.226;8.108;2024-03-23T04:00:31;10.80;99.90
4520;DHT22;2272;49.226;8.108;2024-03-23T04:02:57;10.70;99.90
4520;DHT22;2272;49.226;8.108;2024-03-23T04:05:24;10.80;99.90
4520;DHT22;2272;49.226;8.108;2024-03-23T04:07:51;10.80;99.90
4520;DHT22;2272;49.226;8.108;2024-03-23T04:10:17;10.80;99.90
4520;DHT22;2272;49.226;8.108;2024-03-23T04:12:43;10.70;99.90
4520;DHT22;2272;49.226;8.108;2024-03-23T04:15:10;10.70;99.90
4520;DHT22;2272;49.226;8.108;2024-03-23T04:17:36;10.60;99.90
4520;DHT22;2272;49.226;8.108;2024-03-23T04:20:04;10.60;99.90
4520;DHT22;2272;49.226;8.108;2024-03-23T04:22:34;10.60;99.90
4520;DHT22;2272;49.226;8.108;2024-03-23T04:25:02;10.60;99.90
4520;DHT22;2272;49.226;8.108;2024-03-23T04:27:32;10.60;99.90
4520;DHT22;2272;49.226;8.108;2024-03-23T04:29:58;10.50;99.90
4520;DHT22;2272;49.226;8.108;2024-03-23T04:32:26;10.40;99.90
4520;DHT22;2272;49.226;8.108;2024-03-23T04:34:53;10.30;99.90
4520;DHT22;2272;49.226;8.108;2024-03-23T04:37:20;10.30;99.90
4520;DHT22;2272;49.226;8.108;2024-03-23T04:39:46;10.20;99.90
4520;DHT22;2272;49.226;8.108;2024-03-23T04:42:14;10.10;99.90
4520;DHT22;2272;49.226;8.108;2024-03-23T04:44:41;10.00;99.90
4520;DHT22;2272;49.226;8.108;2024-03-23T04:47:08;10.00;99.90
4520;DHT22;2272;49.226;8.108;2024-03-23T04:49:35;10.00;99.90
4520;DHT22;2272;49.226;8.108;2024-03-23T04:52:02;10.00;99.90
4520;DHT22;2272;49.226;8.108;2024-03-23T04:54:29;9.90;99.90
4520;DHT22;2272;49.226;8.108;2024-03-23T04:56:57;9.80;99.90
4520;DHT22;2272;49.226;8.108;2024-03-23T04:59:24;9.80;99.90
4520;DHT22;2272;49.226;8.108;2024-03-23T05:01:51;9.80;99.90
4520;DHT22;2272;49.226;8.108;2024-03-23T05:04:17;9.70;99.90
4520;DHT22;2272;49.226;8.108;2024-03-23T05:06:44;9.70;99.90
4520;DHT22;2272;49.226;8.108;2024-03-23T05:09:10;9.70;99.90
4520;DHT22;2272;49.226;8.108;2024-03-23T05:11:37;9.60;99.90
4520;DHT22;2272;49.226;8.108;2024-03-23T05:14:03;9.60;99.90
4520;DHT22;2272;49.226;8.108;2024-03-23T05:16:31;9.50;99.90
4520;DHT22;2272;49.226;8.108;2024-03-23T05:18:56;9.40;99.90
4520;DHT22;2272;49.226;8.108;2024-03-23T05:21:23;9.20;99.90
4520;DHT22;2272;49.226;8.108;2024-03-23T05:23:49;9.10;99.90
4520;DHT22;2272;49.226;8.108;2024-03-23T05:26:16;9.10;99.90
4520;DHT22;2272;49.226;8.108;2024-03-23T05:28:42;9.10;99.90
4520;DHT22;2272;49.226;8.108;2024-03-23T05:31:09;9.10;99.90
4520;DHT22;2272;49.226;8.108;2024-03-23T05:33:36;9.10;99.90
4520;DHT22;2272;49.226;8.108;2024-03-23T05:36:04;9.00;99.90
4520;DHT22;2272;49.226;8.108;2024-03-23T05:38:30;8.90;99.90
4520;DHT22;2272;49.226;8.108;2024-03-23T05:40:57;8.90;99.90
4520;DHT22;2272;49.226;8.108;2024-03-23T05:43:24;8.90;99.90
4520;DHT22;2272;49.226;8.108;2024-03-23T05:45:54;8.90;99.90
4520;DHT22;2272;49.226;8.108;2024-03-23T05:48:20;9.00;99.90
4520;DHT22;2272;49.226;8.108;2024-03-23T05:50:48;9.00;99.90
4520;DHT22;2272;49.226;8.108;2024-03-23T05:53:14;8.90;99.90
4520;DHT22;2272;49.226;8.108;2024-03-23T05:55:41;8.90;99.90
4520;DHT22;2272;49.226;8.108;2024-03-23T05:58:07;8.90;99.90
4520;DHT22;2272;49.226;8.108;2024-03-23T06:00:34;8.80;99.90
4520;DHT22;2272;49.226;8.108;2024-03-23T06:03:00;8.80;99.90
4520;DHT22;2272;49.226;8.108;2024-03-23T06:05:26;8.80;99.90
4520;DHT22;2272;49.226;8.108;2024-03-23T06:07:54;8.70;99.90
4520;DHT22;2272;49.226;8.108;2024-03-23T06:10:20;8.70;99.90
4520;DHT22;2272;49.226;8.108;2024-03-23T06:12:46;8.60;99.90
4520;DHT22;2272;49.226;8.108;2024-03-23T06:15:14;8.50;99.90
4520;DHT22;2272;49.226;8.108;2024-03-23T06:17:40;8.60;99.90
4520;DHT22;2272;49.226;8.108;2024-03-23T06:20:07;8.60;99.90
4520;DHT22;2272;49.226;8.108;2024-03-23T06:22:33;8.60;99.90
4520;DHT22;2272;49.226;8.108;2024-03-23T06:25:01;8.60;99.90
4520;DHT22;2272;49.226;8.108;2024-03-23T06:27:28;8.50;99.90
4520;DHT22;2272;49.226;8.108;2024-03-23T06:29:55;8.50;99.90
4520;DHT22;2272;49.226;8.108;2024-03-23T06:32:21;8.40;99.90
4520;DHT22;2272;49.226;8.108;2024-03-23T06:34:47;8.40;99.90
4520;DHT22;2272;49.226;8.108;2024-03-23T06:37:13;8.20;99.90
4520;DHT22;2272;49.226;8.108;2024-03-23T06:39:40;7.80;99.90
4520;DHT22;2272;49.226;8.108;2024-03-23T06:42:07;7.40;99.90
4520;DHT22;2272;49.226;8.108;2024-03-23T06:44:34;7.20;99.90
4520;DHT22;2272;49.226;8.108;2024-03-23T06:49:28;6.80;99.90
4520;DHT22;2272;49.226;8.108;2024-03-23T06:51:54;7.00;99.90
4520;DHT22;2272;49.226;8.108;2024-03-23T06:54:20;7.00;99.90
4520;DHT22;2272;49.226;8.108;2024-03-23T06:56:46;7.00;99.90
4520;DHT22;2272;49.226;8.108;2024-03-23T06:59:14;7.00;99.90
4520;DHT22;2272;49.226;8.108;2024-03-23T07:01:40;7.00;99.90
4520;DHT22;2272;49.226;8.108;2024-03-23T07:04:07;7.10;99.90
4520;DHT22;2272;49.226;8.108;2024-03-23T07:06:33;7.40;99.90
4520;DHT22;2272;49.226;8.108;2024-03-23T07:09:00;7.80;99.90
4520;DHT22;2272;49.226;8.108;2024-03-23T07:11:26;8.10;99.90
4520;DHT22;2272;49.226;8.108;2024-03-23T07:13:53;8.20;99.90
4520;DHT22;2272;49.226;8.108;2024-03-23T07:16:21;8.30;99.90
4520;DHT22;2272;49.226;8.108;2024-03-23T07:18:49;8.20;99.90
4520;DHT22;2272;49.226;8.108;2024-03-23T07:21:15;8.30;99.90
4520;DHT22;2272;49.226;8.108;2024-03-23T07:23:42;8.40;99.90
4520;DHT22;2272;49.226;8.108;2024-03-23T07:26:10;8.50;99.90
4520;DHT22;2272;49.226;8.108;2024-03-23T07:28:37;8.60;99.90
4520;DHT22;2272;49.226;8.108;2024-03-23T07:31:04;8.80;99.90
4520;DHT22;2272;49.226;8.108;2024-03-23T07:33:33;9.00;99.90
4520;DHT22;2272;49.226;8.108;2024-03-23T07:35:58;9.00;99.90
4520;DHT22;2272;49.226;8.108;2024-03-23T07:38:27;9.10;99.90
4520;DHT22;2272;49.226;8.108;2024-03-23T07:41:02;9.20;99.90
4520;DHT22;2272;49.226;8.108;2024-03-23T07:43:29;9.00;99.90
4520;DHT22;2272;49.226;8.108;2024-03-23T07:45:55;8.80;99.90
4520;DHT22;2272;49.226;8.108;2024-03-23T07:48:22;8.80;99.90
4520;DHT22;2272;49.226;8.108;2024-03-23T07:50:57;8.90;99.90
4520;DHT22;2272;49.226;8.108;2024-03-23T07:53:24;9.00;99.90
4520;DHT22;2272;49.226;8.108;2024-03-23T07:55:54;9.10;99.90
4520;DHT22;2272;49.226;8.108;2024-03-23T07:58:20;9.20;99.90
4520;DHT22;2272;49.226;8.108;2024-03-23T08:00:46;9.20;99.90
4520;DHT22;2272;49.226;8.108;2024-03-23T08:03:13;9.00;99.90
4520;DHT22;2272;49.226;8.108;2024-03-23T08:05:39;8.90;99.90
4520;DHT22;2272;49.226;8.108;2024-03-23T08:08:07;8.90;99.90
4520;DHT22;2272;49.226;8.108;2024-03-23T08:10:33;9.10;99.90
4520;DHT22;2272;49.226;8.108;2024-03-23T08:13:00;9.40;99.90
4520;DHT22;2272;49.226;8.108;2024-03-23T08:15:26;9.60;99.90
4520;DHT22;2272;49.226;8.108;2024-03-23T08:17:52;9.90;99.90
4520;DHT22;2272;49.226;8.108;2024-03-23T08:20:18;10.20;99.90
4520;DHT22;2272;49.226;8.108;2024-03-23T08:22:45;10.40;99.90
4520;DHT22;2272;49.226;8.108;2024-03-23T08:25:12;10.60;99.90
4520;DHT22;2272;49.226;8.108;2024-03-23T08:27:39;10.60;99.90
4520;DHT22;2272;49.226;8.108;2024-03-23T08:30:05;10.60;99.90
4520;DHT22;2272;49.226;8.108;2024-03-23T08:32:32;10.50;99.90
4520;DHT22;2272;49.226;8.108;2024-03-23T08:34:58;10.40;99.90
4520;DHT22;2272;49.226;8.108;2024-03-23T08:37:25;10.50;99.90
4520;DHT22;2272;49.226;8.108;2024-03-23T08:39:51;10.70;99.90
4520;DHT22;2272;49.226;8.108;2024-03-23T08:42:19;10.90;99.90
4520;DHT22;2272;49.226;8.108;2024-03-23T08:44:47;11.10;99.90
4520;DHT22;2272;49.226;8.108;2024-03-23T08:47:15;11.20;99.90
4520;DHT22;2272;49.226;8.108;2024-03-23T08:49:40;11.40;99.90
4520;DHT22;2272;49.226;8.108;2024-03-23T08:52:15;11.50;99.90
4520;DHT22;2272;49.226;8.108;2024-03-23T08:54:41;11.40;99.90
4520;DHT22;2272;49.226;8.108;2024-03-23T08:57:09;11.30;99.90
4520;DHT22;2272;49.226;8.108;2024-03-23T08:59:37;11.40;99.90
4520;DHT22;2272;49.226;8.108;2024-03-23T09:02:04;11.70;99.90
4520;DHT22;2272;49.226;8.108;2024-03-23T09:04:30;11.80;99.90
4520;DHT22;2272;49.226;8.108;2024-03-23T09:06:57;11.70;99.90
4520;DHT22;2272;49.226;8.108;2024-03-23T09:09:25;11.60;99.90
4520;DHT22;2272;49.226;8.108;2024-03-23T09:11:52;11.50;99.90
4520;DHT22;2272;49.226;8.108;2024-03-23T09:14:17;11.30;99.90
4520;DHT22;2272;49.226;8.108;2024-03-23T09:16:46;11.20;99.90
4520;DHT22;2272;49.226;8.108;2024-03-23T09:19:11;11.10;99.90
4520;DHT22;2272;49.226;8.108;2024-03-23T09:21:40;11.10;99.90
4520;DHT22;2272;49.226;8.108;2024-03-23T09:24:06;11.10;99.90
4520;DHT22;2272;49.226;8.108;2024-03-23T09:26:33;11.00;99.90
4520;DHT22;2272;49.226;8.108;2024-03-23T09:28:59;11.10;99.90
4520;DHT22;2272;49.226;8.108;2024-03-23T09:31:26;11.20;99.90
4520;DHT22;2272;49.226;8.108;2024-03-23T09:33:53;11.40;99.90
4520;DHT22;2272;49.226;8.108;2024-03-23T09:36:19;11.40;99.90
4520;DHT22;2272;49.226;8.108;2024-03-23T09:38:52;11.60;99.90
4520;DHT22;2272;49.226;8.108;2024-03-23T09:41:19;11.80;99.90
4520;DHT22;2272;49.226;8.108;2024-03-23T09:43:45;11.90;99.90
4520;DHT22;2272;49.226;8.108;2024-03-23T09:46:14;11.90;99.90
4520;DHT22;2272;49.226;8.108;2024-03-23T09:48:39;12.00;99.90
4520;DHT22;2272;49.226;8.108;2024-03-23T09:51:08;12.10;99.90
4520;DHT22;2272;49.226;8.108;2024-03-23T09:53:34;12.20;99.90
4520;DHT22;2272;49.226;8.108;2024-03-23T09:56:01;12.10;99.90
4520;DHT22;2272;49.226;8.108;2024-03-23T09:58:28;12.00;99.90
4520;DHT22;2272;49.226;8.108;2024-03-23T10:00:54;12.10;99.90
4520;DHT22;2272;49.226;8.108;2024-03-23T10:03:20;12.20;99.90
4520;DHT22;2272;49.226;8.108;2024-03-23T10:05:47;12.40;99.90
4520;DHT22;2272;49.226;8.108;2024-03-23T10:08:20;12.60;99.90
4520;DHT22;2272;49.226;8.108;2024-03-23T10:10:46;12.70;99.90
4520;DHT22;2272;49.226;8.108;2024-03-23T10:13:24;13.10;99.90
4520;DHT22;2272;49.226;8.108;2024-03-23T10:15:55;13.10;99.90
4520;DHT22;2272;49.226;8.108;2024-03-23T10:18:22;12.70;99.90
4520;DHT22;2272;49.226;8.108;2024-03-23T10:20:51;12.50;99.90
4520;DHT22;2272;49.226;8.108;2024-03-23T10:23:17;12.50;99.90
4520;DHT22;2272;49.226;8.108;2024-03-23T10:25:46;12.50;99.90
4520;DHT22;2272;49.226;8.108;2024-03-23T10:28:12;12.40;99.90
4520;DHT22;2272;49.226;8.108;2024-03-23T10:30:38;12.20;99.90
4520;DHT22;2272;49.226;8.108;2024-03-23T10:33:08;12.10;99.90
4520;DHT22;2272;49.226;8.108;2024-03-23T10:35:36;12.20;99.90
4520;DHT22;2272;49.226;8.108;2024-03-23T10:38:04;12.50;99.90
4520;DHT22;2272;49.226;8.108;2024-03-23T10:40:31;12.70;99.90
4520;DHT22;2272;49.226;8.108;2024-03-23T10:43:01;12.80;99.90
4520;DHT22;2272;49.226;8.108;2024-03-23T10:45:29;12.70;99.90
4520;DHT22;2272;49.226;8.108;2024-03-23T10:47:56;12.80;99.90
4520;DHT22;2272;49.226;8.108;2024-03-23T10:50:23;12.70;99.90
4520;DHT22;2272;49.226;8.108;2024-03-23T10:52:49;12.60;99.90
4520;DHT22;2272;49.226;8.108;2024-03-23T10:55:17;12.30;99.90
4520;DHT22;2272;49.226;8.108;2024-03-23T10:57:48;11.80;99.90
4520;DHT22;2272;49.226;8.108;2024-03-23T11:00:18;11.40;99.90
4520;DHT22;2272;49.226;8.108;2024-03-23T11:02:44;11.30;99.90
4520;DHT22;2272;49.226;8.108;2024-03-23T11:05:29;11.30;99.90
4520;DHT22;2272;49.226;8.108;2024-03-23T11:07:55;11.50;99.90
4520;DHT22;2272;49.226;8.108;2024-03-23T11:10:26;11.90;99.90
4520;DHT22;2272;49.226;8.108;2024-03-23T11:12:52;12.40;99.90
4520;DHT22;2272;49.226;8.108;2024-03-23T11:15:20;12.60;99.90
4520;DHT22;2272;49.226;8.108;2024-03-23T11:18:04;13.10;99.90
4520;DHT22;2272;49.226;8.108;2024-03-23T11:20:33;13.70;99.90
4520;DHT22;2272;49.226;8.108;2024-03-23T11:22:59;13.80;99.90
4520;DHT22;2272;49.226;8.108;2024-03-23T11:25:27;13.80;99.90
4520;DHT22;2272;49.226;8.108;2024-03-23T11:27:54;13.90;99.90
4520;DHT22;2272;49.226;8.108;2024-03-23T11:30:24;13.80;99.90
4520;DHT22;2272;49.226;8.108;2024-03-23T11:32:51;13.80;99.90
4520;DHT22;2272;49.226;8.108;2024-03-23T11:35:26;13.60;99.90
4520;DHT22;2272;49.226;8.108;2024-03-23T11:38:11;13.30;99.90
4520;DHT22;2272;49.226;8.108;2024-03-23T11:40:39;13.30;99.90
4520;DHT22;2272;49.226;8.108;2024-03-23T11:43:07;13.30;99.90
4520;DHT22;2272;49.226;8.108;2024-03-23T11:45:36;13.10;99.90
4520;DHT22;2272;49.226;8.108;2024-03-23T11:48:07;12.80;99.90
4520;DHT22;2272;49.226;8.108;2024-03-23T11:50:36;12.90;99.90
4520;DHT22;2272;49.226;8.108;2024-03-23T11:53:07;13.20;99.90
4520;DHT22;2272;49.226;8.108;2024-03-23T11:55:40;13.30;99.90
4520;DHT22;2272;49.226;8.108;2024-03-23T11:58:05;13.20;99.90
4520;DHT22;2272;49.226;8.108;2024-03-23T12:00:35;12.90;99.90
4520;DHT22;2272;49.226;8.108;2024-03-23T12:03:01;12.20;99.90
4520;DHT22;2272;49.226;8.108;2024-03-23T12:05:28;11.70;99.90
4520;DHT22;2272;49.226;8.108;2024-03-23T12:07:55;11.40;99.90
4520;DHT22;2272;49.226;8.108;2024-03-23T12:10:21;11.30;99.90
4520;DHT22;2272;49.226;8.108;2024-03-23T12:12:59;11.10;99.90
4520;DHT22;2272;49.226;8.108;2024-03-23T12:15:26;11.00;99.90
4520;DHT22;2272;49.226;8.108;2024-03-23T12:18:06;11.20;99.90
4520;DHT22;2272;49.226;8.108;2024-03-23T12:20:33;11.10;99.90
4520;DHT22;2272;49.226;8.108;2024-03-23T12:23:05;11.10;99.90
4520;DHT22;2272;49.226;8.108;2024-03-23T12:25:32;11.30;99.90
4520;DHT22;2272;49.226;8.108;2024-03-23T12:27:58;11.70;99.90
4520;DHT22;2272;49.226;8.108;2024-03-23T12:30:25;12.20;99.90
4520;DHT22;2272;49.226;8.108;2024-03-23T12:32:51;12.30;99.90
4520;DHT22;2272;49.226;8.108;2024-03-23T12:35:19;12.00;99.90
4520;DHT22;2272;49.226;8.108;2024-03-23T12:37:45;11.00;99.90
4520;DHT22;2272;49.226;8.108;2024-03-23T12:40:12;10.00;99.90
4520;DHT22;2272;49.226;8.108;2024-03-23T12:57:22;9.80;99.90
4520;DHT22;2272;49.226;8.108;2024-03-23T13:09:39;9.20;99.90
4520;DHT22;2272;49.226;8.108;2024-03-23T13:12:06;9.60;99.90
4520;DHT22;2272;49.226;8.108;2024-03-23T13:14:33;9.40;99.90
4520;DHT22;2272;49.226;8.108;2024-03-23T13:16:59;9.40;99.90
4520;DHT22;2272;49.226;8.108;2024-03-23T13:39:08;10.30;99.90
4520;DHT22;2272;49.226;8.108;2024-03-23T13:41:37;10.30;99.90
4520;DHT22;2272;49.226;8.108;2024-03-23T13:44:06;10.20;99.90
4520;DHT22;2272;49.226;8.108;2024-03-23T13:58:48;9.50;99.90
4520;DHT22;2272;49.226;8.108;2024-03-23T14:01:16;9.60;99.90
4520;DHT22;2272;49.226;8.108;2024-03-23T14:03:43;9.70;99.90
4520;DHT22;2272;49.226;8.108;2024-03-23T14:06:10;9.70;99.90
4520;DHT22;2272;49.226;8.108;2024-03-23T14:08:36;9.70;99.90
4520;DHT22;2272;49.226;8.108;2024-03-23T14:11:05;9.70;99.90
4520;DHT22;2272;49.226;8.108;2024-03-23T14:13:31;9.60;99.90
4520;DHT22;2272;49.226;8.108;2024-03-23T14:15:58;9.60;99.90
4520;DHT22;2272;49.226;8.108;2024-03-23T14:18:25;9.60;99.90
4520;DHT22;2272;49.226;8.108;2024-03-23T14:20:55;9.50;99.90
4520;DHT22;2272;49.226;8.108;2024-03-23T14:25:52;9.60;99.90
4520;DHT22;2272;49.226;8.108;2024-03-23T14:28:18;9.80;99.90
4520;DHT22;2272;49.226;8.108;2024-03-23T14:30:45;9.60;99.90
4520;DHT22;2272;49.226;8.108;2024-03-23T14:33:11;9.40;99.90
4520;DHT22;2272;49.226;8.108;2024-03-23T14:35:39;9.50;99.90
4520;DHT22;2272;49.226;8.108;2024-03-23T14:38:05;9.50;99.90
4520;DHT22;2272;49.226;8.108;2024-03-23T14:40:32;9.50;99.90
4520;DHT22;2272;49.226;8.108;2024-03-23T14:42:57;9.50;99.90
4520;DHT22;2272;49.226;8.108;2024-03-23T14:45:24;9.50;99.90
4520;DHT22;2272;49.226;8.108;2024-03-23T14:47:50;9.50;99.90
4520;DHT22;2272;49.226;8.108;2024-03-23T14:50:17;9.60;99.90
4520;DHT22;2272;49.226;8.108;2024-03-23T14:52:45;9.70;99.90
4520;DHT22;2272;49.226;8.108;2024-03-23T14:55:12;9.90;99.90
4520;DHT22;2272;49.226;8.108;2024-03-23T14:57:38;9.90;99.90
4520;DHT22;2272;49.226;8.108;2024-03-23T15:00:07;9.90;99.90
4520;DHT22;2272;49.226;8.108;2024-03-23T15:02:33;9.90;99.90
4520;DHT22;2272;49.226;8.108;2024-03-23T15:05:00;9.70;99.90
4520;DHT22;2272;49.226;8.108;2024-03-23T15:07:25;9.60;99.90
4520;DHT22;2272;49.226;8.108;2024-03-23T15:09:55;9.60;99.90
4520;DHT22;2272;49.226;8.108;2024-03-23T15:12:21;9.40;99.90
4520;DHT22;2272;49.226;8.108;2024-03-23T15:14:48;9.40;99.90
4520;DHT22;2272;49.226;8.108;2024-03-23T15:17:13;9.40;99.90
4520;DHT22;2272;49.226;8.108;2024-03-23T15:19:40;9.40;99.90
4520;DHT22;2272;49.226;8.108;2024-03-23T15:22:08;9.30;99.90
4520;DHT22;2272;49.226;8.108;2024-03-23T15:34:23;6.00;99.90
4520;DHT22;2272;49.226;8.108;2024-03-23T15:36:49;5.70;99.90
4520;DHT22;2272;49.226;8.108;2024-03-23T15:39:16;5.70;99.90
4520;DHT22;2272;49.226;8.108;2024-03-23T15:41:44;5.70;99.90
4520;DHT22;2272;49.226;8.108;2024-03-23T15:44:12;5.60;99.90
4520;DHT22;2272;49.226;8.108;2024-03-23T15:46:38;5.60;99.90
4520;DHT22;2272;49.226;8.108;2024-03-23T15:49:05;5.70;99.90
4520;DHT22;2272;49.226;8.108;2024-03-23T15:51:31;5.80;99.90
4520;DHT22;2272;49.226;8.108;2024-03-23T15:54:00;5.90;99.90
4520;DHT22;2272;49.226;8.108;2024-03-23T15:56:26;6.10;99.90
4520;DHT22;2272;49.226;8.108;2024-03-23T15:58:53;6.40;99.90
4520;DHT22;2272;49.226;8.108;2024-03-23T16:01:20;6.80;99.90
4520;DHT22;2272;49.226;8.108;2024-03-23T16:03:47;7.10;99.90
4520;DHT22;2272;49.226;8.108;2024-03-23T16:06:13;7.20;99.90
4520;DHT22;2272;49.226;8.108;2024-03-23T16:08:39;7.10;99.90
4520;DHT22;2272;49.226;8.108;2024-03-23T16:11:06;7.00;99.90
4520;DHT22;2272;49.226;8.108;2024-03-23T16:13:34;6.90;99.90
4520;DHT22;2272;49.226;8.108;2024-03-23T16:16:01;6.80;99.90
4520;DHT22;2272;49.226;8.108;2024-03-23T16:18:31;6.80;99.90
4520;DHT22;2272;49.226;8.108;2024-03-23T16:20:59;6.80;99.90
4520;DHT22;2272;49.226;8.108;2024-03-23T16:23:26;6.70;99.90
4520;DHT22;2272;49.226;8.108;2024-03-23T16:25:54;6.60;99.90
4520;DHT22;2272;49.226;8.108;2024-03-23T16:28:25;6.60;99.90
4520;DHT22;2272;49.226;8.108;2024-03-23T16:30:55;6.50;99.90
4520;DHT22;2272;49.226;8.108;2024-03-23T16:33:21;6.30;99.90
4520;DHT22;2272;49.226;8.108;2024-03-23T16:35:59;5.60;99.90
4520;DHT22;2272;49.226;8.108;2024-03-23T16:43:26;4.20;99.90
4520;DHT22;2272;49.226;8.108;2024-03-23T16:45:56;4.20;99.90
4520;DHT22;2272;49.226;8.108;2024-03-23T16:48:24;4.00;99.90
4520;DHT22;2272;49.226;8.108;2024-03-23T16:50:50;3.90;99.90
4520;DHT22;2272;49.226;8.108;2024-03-23T16:53:19;3.80;99.90
4520;DHT22;2272;49.226;8.108;2024-03-23T16:55:45;3.70;99.90
4520;DHT22;2272;49.226;8.108;2024-03-23T16:58:12;3.70;99.90
4520;DHT22;2272;49.226;8.108;2024-03-23T17:00:37;3.70;99.90
4520;DHT22;2272;49.226;8.108;2024-03-23T17:03:04;3.70;99.90
4520;DHT22;2272;49.226;8.108;2024-03-23T17:05:36;3.70;99.90
4520;DHT22;2272;49.226;8.108;2024-03-23T17:08:03;3.80;99.90
4520;DHT22;2272;49.226;8.108;2024-03-23T17:10:30;3.80;99.90
4520;DHT22;2272;49.226;8.108;2024-03-23T17:12:58;3.90;99.90
4520;DHT22;2272;49.226;8.108;2024-03-23T17:15:23;3.90;99.90
4520;DHT22;2272;49.226;8.108;2024-03-23T17:17:50;3.90;99.90
4520;DHT22;2272;49.226;8.108;2024-03-23T17:20:16;3.80;99.90
4520;DHT22;2272;49.226;8.108;2024-03-23T17:22:43;3.70;99.90
4520;DHT22;2272;49.226;8.108;2024-03-23T17:25:08;3.70;99.90
4520;DHT22;2272;49.226;8.108;2024-03-23T17:27:37;3.60;99.90
4520;DHT22;2272;49.226;8.108;2024-03-23T17:30:04;3.60;99.90
4520;DHT22;2272;49.226;8.108;2024-03-23T17:32:30;3.60;99.90
4520;DHT22;2272;49.226;8.108;2024-03-23T17:34:56;3.50;99.90
4520;DHT22;2272;49.226;8.108;2024-03-23T17:37:23;3.50;99.90
4520;DHT22;2272;49.226;8.108;2024-03-23T17:39:49;3.40;99.90
4520;DHT22;2272;49.226;8.108;2024-03-23T17:42:16;3.40;99.90
4520;DHT22;2272;49.226;8.108;2024-03-23T17:44:43;3.30;99.90
4520;DHT22;2272;49.226;8.108;2024-03-23T17:47:09;3.20;99.90
4520;DHT22;2272;49.226;8.108;2024-03-23T17:49:35;3.30;99.90
4520;DHT22;2272;49.226;8.108;2024-03-23T17:52:08;3.30;99.90
4520;DHT22;2272;49.226;8.108;2024-03-23T17:54:36;3.20;99.90
4520;DHT22;2272;49.226;8.108;2024-03-23T17:57:04;3.30;99.90
4520;DHT22;2272;49.226;8.108;2024-03-23T17:59:29;3.30;99.90
4520;DHT22;2272;49.226;8.108;2024-03-23T18:01:57;3.30;99.90
4520;DHT22;2272;49.226;8.108;2024-03-23T18:04:24;3.20;99.90
4520;DHT22;2272;49.226;8.108;2024-03-23T18:06:51;3.10;99.90
4520;DHT22;2272;49.226;8.108;2024-03-23T18:09:16;3.10;99.90
4520;DHT22;2272;49.226;8.108;2024-03-23T18:11:43;3.10;99.90
4520;DHT22;2272;49.226;8.108;2024-03-23T18:14:09;3.00;99.90
4520;DHT22;2272;49.226;8.108;2024-03-23T18:16:36;3.00;99.90
4520;DHT22;2272;49.226;8.108;2024-03-23T18:19:03;2.90;99.90